createdAt,value
2022-08-18T00:02:00.409Z,56.80
2022-08-18T00:04:36.404Z,56.84
2022-08-18T00:07:24.480Z,56.90
2022-08-18T00:09:52.313Z,57.08
2022-08-18T00:12:32.665Z,57.20
2022-08-18T00:15:03.972Z,58.38
2022-08-18T00:17:31.679Z,58.97
2022-08-18T00:19:59.091Z,59.18
2022-08-18T00:22:25.740Z,58.91
2022-08-18T00:24:55.078Z,58.80
2022-08-18T00:27:30.175Z,59.54
2022-08-18T00:30:00.145Z,59.42
2022-08-18T00:32:34.104Z,60.37
2022-08-18T00:35:06.877Z,59.73
2022-08-18T00:37:33.484Z,59.55
2022-08-18T00:40:01.195Z,60.27
2022-08-18T00:42:30.555Z,59.84
2022-08-18T00:45:04.273Z,59.84
2022-08-18T00:47:41.403Z,59.39
2022-08-18T00:50:21.336Z,59.79
2022-08-18T00:52:54.988Z,59.82
2022-08-18T00:55:22.489Z,59.67
2022-08-18T00:57:52.546Z,60.09
2022-08-18T01:00:19.574Z,61.14
2022-08-18T01:02:50.655Z,60.99
2022-08-18T01:05:20.132Z,60.87
2022-08-18T01:07:48.727Z,60.64
2022-08-18T01:10:21.001Z,61.27
2022-08-18T01:12:53.434Z,61.98
2022-08-18T01:15:27.985Z,61.89
2022-08-18T01:18:17.569Z,62.22
2022-08-18T01:21:21.086Z,62.23
2022-08-18T01:23:48.896Z,62.21
2022-08-18T01:26:18.004Z,62.34
2022-08-18T01:28:46.541Z,62.66
2022-08-18T01:31:30.562Z,63.39
2022-08-18T01:33:57.372Z,63.34
2022-08-18T01:36:24.100Z,63.51
2022-08-18T01:38:53.144Z,63.67
2022-08-18T01:41:29.733Z,64.12
2022-08-18T01:43:59.142Z,64.36
2022-08-18T01:46:27.426Z,64.91
2022-08-18T01:48:54.002Z,65.14
2022-08-18T01:51:40.428Z,65.37
2022-08-18T01:54:09.258Z,65.28
2022-08-18T01:56:36.834Z,65.26
2022-08-18T01:59:03.789Z,65.38
2022-08-18T02:01:36.206Z,65.65
2022-08-18T02:04:33.231Z,65.72
2022-08-18T02:06:54.072Z,65.77
2022-08-18T02:09:24.149Z,65.80
2022-08-18T02:11:53.134Z,66.92
2022-08-18T02:14:25.042Z,66.59
2022-08-18T02:17:01.456Z,66.64
2022-08-18T02:19:32.232Z,66.53
2022-08-18T02:21:58.751Z,66.25
2022-08-18T02:24:25.263Z,66.57
2022-08-18T02:26:51.784Z,67.59
2022-08-18T02:29:18.430Z,68.02
2022-08-18T02:31:44.953Z,68.14
2022-08-18T02:34:11.486Z,68.02
2022-08-18T02:36:38.148Z,67.88
2022-08-18T02:39:04.722Z,68.06
2022-08-18T02:41:31.463Z,68.39
2022-08-18T02:43:58.812Z,69.21
2022-08-18T02:46:29.840Z,69.27
2022-08-18T02:48:57.824Z,69.34
2022-08-18T02:51:26.051Z,68.94
2022-08-18T02:53:53.857Z,68.79
2022-08-18T02:56:39.936Z,68.57
2022-08-18T02:59:10.302Z,68.62
2022-08-18T03:01:40.608Z,68.09
2022-08-18T03:04:09.690Z,68.15
2022-08-18T03:06:38.060Z,68.34
2022-08-18T03:09:11.683Z,68.01
2022-08-18T03:11:39.002Z,68.14
2022-08-18T03:14:06.388Z,68.87
2022-08-18T03:16:53.268Z,69.73
2022-08-18T03:19:26.071Z,70.37
2022-08-18T03:21:53.273Z,70.76
2022-08-18T03:24:23.021Z,71.14
2022-08-18T03:26:52.387Z,71.55
2022-08-18T03:29:20.022Z,71.61
2022-08-18T03:31:48.917Z,71.52
2022-08-18T03:34:19.792Z,71.63
2022-08-18T03:36:47.734Z,71.24
2022-08-18T03:39:14.338Z,71.46
2022-08-18T03:41:59.721Z,71.07
2022-08-18T03:44:32.742Z,71.22
2022-08-18T03:47:02.906Z,71.18
2022-08-18T03:49:30.501Z,71.00
2022-08-18T03:52:00.189Z,71.47
2022-08-18T03:54:27.148Z,70.88
2022-08-18T03:56:54.601Z,71.07
2022-08-18T03:59:24.819Z,71.20
2022-08-18T04:01:54.197Z,71.19
2022-08-18T04:04:24.597Z,71.47
2022-08-18T04:06:55.746Z,71.50
2022-08-18T04:09:24.754Z,70.87
2022-08-18T04:11:52.530Z,70.73
2022-08-18T04:14:24.092Z,70.42
2022-08-18T04:16:50.928Z,70.29
2022-08-18T04:19:26.158Z,70.17
2022-08-18T04:21:56.011Z,70.17
2022-08-18T04:24:22.609Z,70.07
2022-08-18T04:26:50.134Z,70.48
2022-08-18T04:29:21.415Z,70.40
2022-08-18T04:31:50.293Z,70.02
2022-08-18T04:34:20.507Z,69.87
2022-08-18T04:36:47.188Z,69.93
2022-08-18T04:39:13.823Z,69.53
2022-08-18T04:41:43.552Z,69.51
2022-08-18T04:44:12.335Z,69.55
2022-08-18T04:46:47.547Z,69.65
2022-08-18T04:49:15.506Z,70.33
2022-08-18T04:52:37.356Z,70.96
2022-08-18T04:54:52.139Z,70.97
2022-08-18T04:57:20.941Z,71.22
2022-08-18T04:59:49.580Z,70.92
2022-08-18T05:02:21.252Z,71.18
2022-08-18T05:04:47.949Z,71.84
2022-08-18T05:07:22.712Z,71.77
2022-08-18T05:09:50.111Z,71.53
2022-08-18T05:12:16.691Z,71.27
2022-08-18T05:14:45.769Z,71.26
2022-08-18T05:17:14.995Z,70.21
2022-08-18T05:19:44.608Z,69.23
2022-08-18T05:22:17.797Z,68.04
2022-08-18T05:24:45.713Z,67.79
2022-08-18T05:27:13.113Z,68.04
2022-08-18T05:29:41.498Z,68.32
2022-08-18T05:32:12.292Z,67.84
2022-08-18T05:35:02.511Z,66.93
2022-08-18T05:37:40.417Z,66.84
2022-08-18T05:40:11.407Z,66.73
2022-08-18T05:42:40.431Z,66.24
2022-08-18T05:45:13.026Z,66.65
2022-08-18T05:47:39.647Z,66.84
2022-08-18T05:50:17.566Z,65.63
2022-08-18T05:52:51.672Z,65.92
2022-08-18T05:55:47.744Z,65.78
2022-08-18T05:58:21.176Z,66.14
2022-08-18T06:00:58.823Z,65.87
2022-08-18T06:03:51.407Z,65.99
2022-08-18T06:06:25.461Z,65.03
2022-08-18T06:09:13.385Z,65.42
2022-08-18T06:11:40.246Z,66.29
2022-08-18T06:14:07.061Z,65.66
2022-08-18T06:17:04.525Z,65.74
2022-08-18T06:19:59.521Z,66.24
2022-08-18T06:22:53.310Z,65.31
2022-08-18T06:25:46.063Z,65.14
2022-08-18T06:28:16.019Z,63.79
2022-08-18T06:30:42.557Z,61.32
2022-08-18T06:33:09.321Z,61.52
2022-08-18T06:35:47.531Z,61.43
2022-08-18T06:38:36.749Z,60.77
2022-08-18T06:41:10.389Z,61.99
2022-08-18T06:44:04.257Z,60.49
2022-08-18T06:46:41.910Z,60.29
2022-08-18T06:49:13.073Z,58.69
2022-08-18T06:51:40.942Z,59.53
2022-08-18T06:54:19.918Z,58.76
2022-08-18T06:56:51.033Z,59.37
2022-08-18T06:59:20.482Z,58.86
2022-08-18T07:01:50.748Z,56.48
2022-08-18T07:04:36.500Z,56.51
2022-08-18T07:07:15.216Z,56.54
2022-08-18T07:09:41.840Z,56.78
2022-08-18T07:13:22.092Z,55.87
2022-08-18T07:17:21.783Z,54.58
2022-08-18T07:20:28.430Z,55.17
2022-08-18T07:23:08.079Z,54.71
2022-08-18T07:25:46.780Z,55.40
2022-08-18T07:28:47.648Z,54.57
2022-08-18T07:31:19.660Z,53.87
2022-08-18T07:34:01.320Z,52.68
2022-08-18T07:36:35.503Z,49.93
2022-08-18T07:39:10.695Z,49.09
2022-08-18T07:41:57.450Z,48.98
2022-08-18T07:44:28.232Z,48.79
2022-08-18T07:47:04.388Z,48.99
2022-08-18T07:49:36.605Z,48.07
2022-08-18T07:52:36.118Z,46.85
2022-08-18T07:59:38.453Z,44.32
2022-08-18T08:02:45.856Z,44.73
2022-08-18T08:09:03.098Z,44.87
2022-08-18T08:11:35.881Z,43.99
2022-08-18T08:14:26.726Z,43.56
2022-08-18T08:17:04.747Z,42.71
2022-08-18T08:20:00.966Z,42.97
2022-08-18T08:22:48.657Z,43.34
2022-08-18T08:25:45.793Z,42.98
2022-08-18T08:28:15.172Z,43.17
2022-08-18T08:31:25.506Z,42.30
2022-08-18T08:34:06.810Z,42.78
2022-08-18T08:36:41.522Z,41.00
2022-08-18T08:39:21.399Z,40.28
2022-08-18T08:42:30.822Z,40.64
2022-08-18T08:45:01.799Z,42.19
2022-08-18T08:48:08.532Z,41.41
2022-08-18T08:50:43.612Z,40.89
2022-08-18T08:53:48.215Z,42.19
2022-08-18T08:56:19.370Z,41.31
2022-08-18T08:58:55.982Z,42.26
2022-08-18T09:01:48.736Z,41.90
2022-08-18T09:04:24.447Z,41.06
2022-08-18T09:07:30.085Z,42.53
2022-08-18T09:10:35.887Z,40.73
2022-08-18T09:13:14.521Z,40.14
2022-08-18T09:15:58.422Z,39.96
2022-08-18T09:18:28.119Z,41.64
2022-08-18T09:21:13.452Z,40.45
2022-08-18T09:23:47.412Z,38.86
2022-08-18T09:26:39.796Z,38.60
2022-08-18T09:29:23.600Z,37.06
2022-08-18T09:32:20.338Z,37.29
2022-08-18T09:35:14.738Z,34.81
2022-08-18T09:38:12.560Z,34.54
2022-08-18T09:41:09.769Z,36.20
2022-08-18T09:43:53.322Z,35.36
2022-08-18T09:46:41.707Z,35.76
2022-08-18T09:49:22.599Z,36.12
2022-08-18T09:52:24.361Z,36.22
2022-08-18T09:55:30.856Z,36.64
2022-08-18T09:58:48.335Z,36.01
2022-08-18T10:01:34.640Z,35.24
2022-08-18T10:04:14.884Z,34.21
2022-08-18T10:06:44.130Z,34.77
2022-08-18T10:09:26.693Z,32.83
2022-08-18T10:12:27.261Z,33.94
2022-08-18T10:15:32.784Z,33.66
2022-08-18T10:18:19.272Z,33.32
2022-08-18T10:24:32.209Z,32.78
2022-08-18T10:26:55.445Z,32.03
2022-08-18T10:29:24.937Z,31.52
2022-08-18T10:31:58.558Z,32.46
2022-08-18T10:34:56.151Z,31.34
2022-08-18T10:37:49.013Z,31.07
2022-08-18T10:40:21.503Z,31.38
2022-08-18T10:46:25.005Z,31.28
2022-08-18T10:49:13.442Z,30.74
2022-08-18T10:52:00.552Z,30.99
2022-08-18T10:54:51.257Z,30.99
2022-08-18T10:57:52.349Z,30.14
2022-08-18T11:00:21.673Z,31.94
2022-08-18T11:03:52.292Z,30.36
2022-08-18T11:06:24.903Z,30.26
2022-08-18T11:11:53.477Z,30.49
2022-08-18T11:15:22.496Z,30.39
2022-08-18T11:18:04.786Z,29.98
2022-08-18T11:20:40.277Z,29.73
2022-08-18T11:23:16.648Z,29.73
2022-08-18T11:25:45.195Z,30.14
2022-08-18T11:28:30.190Z,29.94
2022-08-18T11:30:58.275Z,29.34
2022-08-18T11:33:25.189Z,29.19
2022-08-18T11:35:59.481Z,28.95
2022-08-18T11:38:29.574Z,30.01
2022-08-18T11:41:14.233Z,29.03
2022-08-18T11:43:46.738Z,29.05
2022-08-18T11:46:24.038Z,29.54
2022-08-18T11:48:54.923Z,29.42
2022-08-18T11:51:25.538Z,28.72
2022-08-18T11:54:13.002Z,29.27
2022-08-18T11:56:39.523Z,29.01
2022-08-18T12:02:17.365Z,30.16
2022-08-18T12:04:44.596Z,28.71
2022-08-18T12:07:13.268Z,28.44
2022-08-18T12:12:45.920Z,28.52
2022-08-18T12:15:17.448Z,29.81
2022-08-18T12:17:52.458Z,28.55
2022-08-18T12:20:20.943Z,29.51
2022-08-18T12:22:49.898Z,29.09
2022-08-18T12:25:24.781Z,28.75
2022-08-18T12:27:51.667Z,29.23
2022-08-18T12:30:19.164Z,28.99
2022-08-18T12:32:50.138Z,28.43
2022-08-18T12:35:22.173Z,29.18
2022-08-18T12:38:12.923Z,29.19
2022-08-18T12:40:36.125Z,29.14
2022-08-18T12:43:03.230Z,29.84
2022-08-18T12:45:32.828Z,29.62
2022-08-18T12:48:04.481Z,29.00
2022-08-18T12:50:36.182Z,29.29
2022-08-18T12:53:04.925Z,30.05
2022-08-18T12:55:37.627Z,29.59
2022-08-18T12:58:10.236Z,30.06
2022-08-18T13:00:37.340Z,29.42
2022-08-18T13:03:03.940Z,29.47
2022-08-18T13:05:30.464Z,29.24
2022-08-18T13:08:04.433Z,29.26
2022-08-18T13:10:35.498Z,28.59
2022-08-18T13:13:12.117Z,29.03
2022-08-18T13:15:38.777Z,29.47
2022-08-18T13:18:14.398Z,29.44
2022-08-18T13:20:45.172Z,29.42
2022-08-18T13:23:12.014Z,29.12
2022-08-18T13:25:39.704Z,27.91
2022-08-18T13:28:06.761Z,29.04
2022-08-18T13:30:33.425Z,28.93
2022-08-18T13:33:05.703Z,28.81
2022-08-18T13:35:54.077Z,28.79
2022-08-18T13:38:27.289Z,29.29
2022-08-18T13:40:57.809Z,28.57
2022-08-18T13:43:32.224Z,28.84
2022-08-18T13:45:59.886Z,28.74
2022-08-18T13:48:28.408Z,29.05
2022-08-18T13:51:00.004Z,29.06
2022-08-18T13:53:29.619Z,29.09
2022-08-18T13:55:58.914Z,29.18
2022-08-18T13:58:27.160Z,28.70
2022-08-18T14:01:22.523Z,28.75
2022-08-18T14:03:47.517Z,28.66
2022-08-18T14:06:14.852Z,28.90
2022-08-18T14:11:42.111Z,29.01
2022-08-18T14:14:09.169Z,29.15
2022-08-18T14:16:36.304Z,29.58
2022-08-18T14:19:28.341Z,29.65
2022-08-18T14:22:14.042Z,29.39
2022-08-18T14:25:00.977Z,29.68
2022-08-18T14:27:38.600Z,29.51
2022-08-18T14:30:08.640Z,30.46
2022-08-18T14:32:36.136Z,29.66
2022-08-18T14:35:33.506Z,29.51
2022-08-18T14:37:53.944Z,29.47
2022-08-18T14:40:22.990Z,28.91
2022-08-18T14:42:54.417Z,29.23
2022-08-18T14:45:34.292Z,29.27
2022-08-18T14:48:07.532Z,28.94
2022-08-18T14:50:40.195Z,28.82
2022-08-18T14:53:16.421Z,28.14
2022-08-18T14:55:43.392Z,28.21
2022-08-18T14:58:09.993Z,28.23
2022-08-18T15:00:53.589Z,28.27
2022-08-18T15:03:31.298Z,29.15
2022-08-18T15:06:00.416Z,29.59
2022-08-18T15:08:27.284Z,29.08
2022-08-18T15:10:55.683Z,29.46
2022-08-18T15:13:26.547Z,29.34
2022-08-18T15:15:55.860Z,28.81
2022-08-18T15:18:28.724Z,29.15
2022-08-18T15:21:19.607Z,29.34
2022-08-18T15:24:19.588Z,29.94
2022-08-18T15:26:51.474Z,29.97
2022-08-18T15:29:19.371Z,30.51
2022-08-18T15:31:57.976Z,30.77
2022-08-18T15:34:27.463Z,32.36
2022-08-18T15:36:56.961Z,32.87
2022-08-18T15:39:24.368Z,33.56
2022-08-18T15:44:21.031Z,34.89
2022-08-18T15:46:53.271Z,35.26
2022-08-18T15:49:22.913Z,36.36
2022-08-18T15:51:50.132Z,36.56
2022-08-18T15:54:19.554Z,36.71
2022-08-18T15:56:57.696Z,36.99
2022-08-18T15:59:27.055Z,37.49
2022-08-18T16:02:06.253Z,37.49
2022-08-18T16:04:39.459Z,36.61
2022-08-18T16:07:06.895Z,37.55
2022-08-18T16:09:36.779Z,37.73
2022-08-18T16:12:04.120Z,37.53
2022-08-18T16:14:32.161Z,38.16
2022-08-18T16:17:00.351Z,38.33
2022-08-18T16:19:30.147Z,38.92
2022-08-18T16:21:58.313Z,39.19
2022-08-18T16:24:25.758Z,37.79
2022-08-18T16:26:52.267Z,37.84
2022-08-18T16:29:19.414Z,37.74
2022-08-18T16:31:46.554Z,39.20
2022-08-18T16:34:13.183Z,40.06
2022-08-18T16:36:39.692Z,40.90
2022-08-18T16:41:49.998Z,43.01
2022-08-18T16:44:17.087Z,43.12
2022-08-18T16:46:43.696Z,44.46
2022-08-18T16:49:10.861Z,45.84
2022-08-18T16:51:37.435Z,46.40
2022-08-18T16:54:04.486Z,47.56
2022-08-18T16:56:35.717Z,49.21
2022-08-18T16:59:21.093Z,51.33
2022-08-18T17:02:30.364Z,52.29
2022-08-18T17:05:02.413Z,52.80
2022-08-18T17:07:34.703Z,53.64
2022-08-18T17:10:01.817Z,53.82
2022-08-18T17:12:29.572Z,53.84
2022-08-18T17:14:56.184Z,54.58
2022-08-18T17:17:22.939Z,54.89
2022-08-18T17:19:50.174Z,56.41
2022-08-18T17:22:17.784Z,57.25
2022-08-18T17:24:50.482Z,57.72
2022-08-18T17:27:26.568Z,58.92
2022-08-18T17:30:02.608Z,59.82
2022-08-18T17:32:41.750Z,59.86
2022-08-18T17:35:15.811Z,60.27
2022-08-18T17:37:51.864Z,60.28
2022-08-18T17:40:28.747Z,59.90
2022-08-18T17:42:56.232Z,60.12
2022-08-18T17:45:24.172Z,59.69
2022-08-18T17:48:12.798Z,59.77
2022-08-18T17:51:04.188Z,59.75
2022-08-18T17:53:32.907Z,59.47
2022-08-18T17:56:21.067Z,60.27
2022-08-18T17:58:55.223Z,60.05
2022-08-18T18:01:23.546Z,61.46
2022-08-18T18:03:50.837Z,63.58
2022-08-18T18:06:38.453Z,62.75
2022-08-18T18:09:08.857Z,62.69
2022-08-18T18:11:42.327Z,64.34
2022-08-18T18:14:37.586Z,64.38
2022-08-18T18:17:14.424Z,64.69
2022-08-18T18:19:48.234Z,65.22
2022-08-18T18:22:24.030Z,65.52
2022-08-18T18:24:51.993Z,64.87
2022-08-18T18:27:43.468Z,65.22
2022-08-18T18:30:16.773Z,64.59
2022-08-18T18:33:13.995Z,64.49
2022-08-18T18:36:00.576Z,65.33
2022-08-18T18:38:33.545Z,65.41
2022-08-18T18:41:13.134Z,65.76
2022-08-18T18:43:43.556Z,65.11
2022-08-18T18:46:18.381Z,65.92
2022-08-18T18:49:13.616Z,66.06
2022-08-18T18:52:04.772Z,65.52
2022-08-18T18:54:34.283Z,65.29
2022-08-18T18:57:02.527Z,65.13
2022-08-18T18:59:48.056Z,67.02
2022-08-18T19:02:33.924Z,66.20
2022-08-18T19:05:29.851Z,66.66
2022-08-18T19:08:15.562Z,67.24
2022-08-18T19:11:00.378Z,67.86
2022-08-18T19:13:35.152Z,68.25
2022-08-18T19:16:23.355Z,67.67
2022-08-18T19:19:35.828Z,68.44
2022-08-18T19:22:03.122Z,67.66
2022-08-18T19:24:37.580Z,68.04
2022-08-18T19:27:06.975Z,68.07
2022-08-18T19:29:40.980Z,67.55
2022-08-18T19:32:19.905Z,66.97
2022-08-18T19:34:52.667Z,66.77
2022-08-18T19:37:44.768Z,66.88
2022-08-18T19:40:27.524Z,66.58
2022-08-18T19:43:26.731Z,66.37
2022-08-18T19:45:55.987Z,66.64
2022-08-18T19:48:47.687Z,67.08
2022-08-18T19:51:29.082Z,66.96
2022-08-18T19:54:17.613Z,67.72
2022-08-18T19:57:08.663Z,67.74
2022-08-18T20:00:10.762Z,66.82
2022-08-18T20:03:06.617Z,69.39
2022-08-18T20:05:42.284Z,68.77
2022-08-18T20:08:38.744Z,70.52
2022-08-18T20:11:08.120Z,70.89
2022-08-18T20:13:44.680Z,71.60
2022-08-18T20:16:24.491Z,71.55
2022-08-18T20:18:56.406Z,71.54
2022-08-18T20:21:41.582Z,71.32
2022-08-18T20:24:33.287Z,70.52
2022-08-18T20:27:32.899Z,70.44
2022-08-18T20:30:29.691Z,69.16
2022-08-18T20:33:11.425Z,69.31
2022-08-18T20:35:40.984Z,68.92
2022-08-18T20:38:34.957Z,69.51
2022-08-18T20:41:20.207Z,69.28
2022-08-18T20:43:51.166Z,69.46
2022-08-18T20:46:17.763Z,69.19
2022-08-18T20:49:20.498Z,70.34
2022-08-18T20:51:58.570Z,70.04
2022-08-18T20:54:57.403Z,69.79
2022-08-18T20:57:27.147Z,69.70
2022-08-18T21:00:22.657Z,69.34
2022-08-18T21:02:56.414Z,69.52
2022-08-18T21:05:31.570Z,69.93
2022-08-18T21:08:16.089Z,69.72
2022-08-18T21:10:55.362Z,69.82
2022-08-18T21:13:46.254Z,69.47
2022-08-18T21:16:37.939Z,69.56
2022-08-18T21:19:40.538Z,70.22
2022-08-18T21:22:11.039Z,71.51
2022-08-18T21:24:42.530Z,72.07
2022-08-18T21:27:35.339Z,72.59
2022-08-18T21:30:15.435Z,72.87
2022-08-18T21:32:43.458Z,74.07
2022-08-18T21:35:40.591Z,74.40
2022-08-18T21:38:11.854Z,75.87
2022-08-18T21:40:44.713Z,75.77
2022-08-18T21:43:13.716Z,77.17
2022-08-18T21:45:56.216Z,77.02
2022-08-18T21:48:27.687Z,77.94
2022-08-18T21:51:00.492Z,78.47
2022-08-18T21:53:31.184Z,78.85
2022-08-18T21:55:58.899Z,78.59
2022-08-18T21:58:42.119Z,79.37
2022-08-18T22:01:19.796Z,80.11
2022-08-18T22:04:00.075Z,80.33
2022-08-18T22:06:32.795Z,80.42
2022-08-18T22:09:40.187Z,80.43
2022-08-18T22:12:46.295Z,80.79
2022-08-18T22:15:16.061Z,80.58
2022-08-18T22:17:56.132Z,80.22
2022-08-18T22:20:46.702Z,80.30
2022-08-18T22:23:31.926Z,80.89
2022-08-18T22:26:12.403Z,80.50
2022-08-18T22:29:10.437Z,81.36
2022-08-18T22:31:46.580Z,81.79
2022-08-18T22:34:27.996Z,81.98
2022-08-18T22:37:09.398Z,81.89
2022-08-18T22:39:57.231Z,81.44
2022-08-18T22:42:27.227Z,81.52
2022-08-18T22:44:54.039Z,81.82
2022-08-18T22:47:21.450Z,82.07
2022-08-18T22:49:48.834Z,83.82
2022-08-18T22:52:19.961Z,85.35
2022-08-18T22:54:46.585Z,85.77
2022-08-18T22:57:18.495Z,86.02
2022-08-18T22:59:50.166Z,86.57
2022-08-18T23:02:21.819Z,87.80
2022-08-18T23:04:49.071Z,87.43
2022-08-18T23:07:15.956Z,87.79
2022-08-18T23:09:42.581Z,87.79
2022-08-18T23:12:13.720Z,87.79
2022-08-18T23:14:44.485Z,87.48
2022-08-18T23:17:11.084Z,87.25
2022-08-18T23:19:37.996Z,86.86
2022-08-18T23:22:05.381Z,86.76
2022-08-18T23:24:31.962Z,87.33
2022-08-18T23:26:59.228Z,87.15
2022-08-18T23:29:27.673Z,87.09
2022-08-18T23:31:54.417Z,85.69
2022-08-18T23:34:23.154Z,85.57
2022-08-18T23:37:01.527Z,86.88
2022-08-18T23:39:30.500Z,86.59
2022-08-18T23:41:58.108Z,88.94
2022-08-18T23:44:27.715Z,90.01
2022-08-18T23:46:55.528Z,91.30
2022-08-18T23:49:23.390Z,92.57
2022-08-18T23:51:54.646Z,92.75
2022-08-18T23:54:24.495Z,93.12
2022-08-18T23:56:51.356Z,94.14
2022-08-18T23:59:31.837Z,94.87
